Time;durP1;ratioP1;P1;durP2;ratioP2;P2;SDS_P1;SDS_P2;PMS_P1;PMS_P2;Temp;Humidity;BMP_temperature;BMP_pressure;BME280_temperature;BME280_humidity;BME280_pressure;Samples;Min_cycle;Max_cycle;Signal;HPM_P1;HPM_P2
2021/11/19 00:00:13;;;;;;;25.90;11.75;;;;;;;13.75;62.97;101821.84;6102854;23;99590;-86
2021/11/19 00:02:43;;;;;;;23.23;11.90;;;;;;;14.01;62.97;101821.88;6104858;23;96553;-86
2021/11/19 00:05:13;;;;;;;21.95;11.65;;;;;;;13.84;62.44;101833.06;6102059;23;96986;-86
2021/11/19 00:07:54;;;;;;;24.20;12.25;;;;;;;14.11;62.17;101822.44;6098543;23;98422;-87
2021/11/19 00:10:22;;;;;;;26.67;12.25;;;;;;;14.34;61.20;101828.72;6102538;23;100667;-86
2021/11/19 00:15:33;;;;;;;24.00;12.15;;;;;;;14.30;61.12;101826.22;6104268;23;96776;-85
2021/11/19 00:18:01;;;;;;;23.13;12.05;;;;;;;13.95;63.29;101828.25;6116001;23;99223;-86
2021/11/19 00:20:30;;;;;;;24.42;12.25;;;;;;;13.71;63.66;101830.81;6120576;22;97721;-87
2021/11/19 00:23:02;;;;;;;25.65;13.07;;;;;;;13.72;63.54;101819.28;6120251;23;96593;-85
2021/11/19 00:25:32;;;;;;;24.83;12.15;;;;;;;13.66;63.37;101825.63;6111340;23;97070;-86
2021/11/19 00:28:02;;;;;;;27.33;12.77;;;;;;;13.59;62.92;101821.44;6106783;23;98293;-86
2021/11/19 00:30:32;;;;;;;22.23;11.63;;;;;;;13.98;63.45;101829.09;6105841;23;99563;-86
2021/11/19 00:33:00;;;;;;;20.85;12.05;;;;;;;13.79;63.11;101820.81;6111463;23;97012;-86
2021/11/19 00:35:28;;;;;;;25.77;12.30;;;;;;;13.78;64.37;101822.63;6086970;23;96752;-86
2021/11/19 00:38:00;;;;;;;23.70;12.25;;;;;;;13.72;64.29;101821.94;6112367;23;99303;-86
2021/11/19 00:40:31;;;;;;;23.80;12.52;;;;;;;13.85;63.46;101821.47;6109912;23;99943;-86
2021/11/19 00:42:58;;;;;;;17.60;11.77;;;;;;;13.55;64.77;101825.97;6106410;23;96636;-86
2021/11/19 00:45:25;;;;;;;31.60;13.15;;;;;;;13.75;63.88;101819.19;6102440;23;96659;-86
2021/11/19 00:47:54;;;;;;;22.58;12.18;;;;;;;13.70;64.17;101814.03;6106777;23;98233;-85
2021/11/19 00:50:24;;;;;;;20.83;12.27;;;;;;;13.44;65.45;101812.16;6117984;22;97889;-84
2021/11/19 00:52:51;;;;;;;24.95;12.93;;;;;;;13.49;65.12;101812.91;6121000;22;96392;-85
2021/11/19 00:55:22;;;;;;;25.67;12.65;;;;;;;13.79;65.29;101815.50;6116211;22;96519;-84
2021/11/19 00:57:51;;;;;;;23.30;12.80;;;;;;;13.96;64.14;101822.03;6113077;23;100161;-85
2021/11/19 01:00:22;;;;;;;24.02;13.15;;;;;;;13.85;63.99;101832.09;6108935;23;98885;-85
2021/11/19 01:02:51;;;;;;;22.77;13.25;;;;;;;13.96;64.22;101830.00;6103779;23;96636;-83
2021/11/19 01:05:19;;;;;;;23.38;12.57;;;;;;;14.02;63.01;101828.94;6102702;23;96872;-84
2021/11/19 01:07:49;;;;;;;26.52;13.30;;;;;;;13.66;65.08;101830.94;6102117;23;99946;-85
2021/11/19 01:10:23;;;;;;;22.48;13.02;;;;;;;14.22;63.54;101822.94;6102587;23;99841;-85
2021/11/19 01:12:51;;;;;;;24.42;13.73;;;;;;;14.13;63.40;101828.56;6109941;23;96611;-85
2021/11/19 01:18:19;;;;;;;32.97;13.90;;;;;;;13.42;65.99;101837.03;6104358;23;99703;-84
2021/11/19 01:20:49;;;;;;;23.23;13.45;;;;;;;13.96;64.47;101837.09;6102903;23;99500;-86
2021/11/19 01:23:22;;;;;;;25.45;13.57;;;;;;;14.14;63.90;101830.31;6103513;23;97042;-86
2021/11/19 01:25:58;;;;;;;20.55;12.98;;;;;;;14.23;62.96;101838.00;6102319;23;97250;-86
2021/11/19 01:28:26;;;;;;;24.80;13.48;;;;;;;13.72;64.61;101824.59;6102500;23;98207;-86
2021/11/19 01:30:58;;;;;;;28.30;12.90;;;;;;;13.74;64.34;101826.28;6102771;23;98087;-86
2021/11/19 01:33:26;;;;;;;20.67;12.98;;;;;;;14.26;63.69;101829.88;6102655;23;96605;-86
2021/11/19 01:35:59;;;;;;;24.42;13.27;;;;;;;14.14;62.38;101820.53;6104370;23;97074;-87
2021/11/19 01:38:29;;;;;;;44.13;12.65;;;;;;;13.64;64.98;101832.81;6105205;23;100835;-86
2021/11/19 01:41:02;;;;;;;31.42;13.60;;;;;;;13.96;64.39;101830.00;6105561;23;100766;-86
2021/11/19 01:43:32;;;;;;;24.77;12.77;;;;;;;14.28;62.48;101830.72;6114298;23;96529;-87
2021/11/19 01:46:02;;;;;;;20.90;12.85;;;;;;;14.27;62.76;101834.28;6113682;23;96416;-85
2021/11/19 01:48:38;;;;;;;20.08;12.27;;;;;;;14.79;61.71;101837.84;6116904;23;98151;-87
2021/11/19 01:51:12;;;;;;;19.80;12.65;;;;;;;14.30;62.38;101836.88;6120245;23;98052;-86
2021/11/19 01:53:41;;;;;;;18.02;12.68;;;;;;;14.56;62.31;101843.97;6121404;22;96003;-87
2021/11/19 01:56:14;;;;;;;18.33;11.77;;;;;;;14.79;61.80;101832.50;6122294;22;96394;-85
2021/11/19 01:58:44;;;;;;;23.38;12.85;;;;;;;14.84;61.02;101841.19;6120206;23;99129;-85
2021/11/19 02:01:16;;;;;;;22.60;12.27;;;;;;;14.70;61.54;101833.72;6112042;23;100372;-86
2021/11/19 02:03:46;;;;;;;23.83;12.57;;;;;;;14.75;61.82;101827.31;6105446;23;96495;-86
2021/11/19 02:06:19;;;;;;;22.92;12.20;;;;;;;14.48;62.81;101828.28;6111523;23;96657;-86
2021/11/19 02:08:48;;;;;;;23.60;12.55;;;;;;;14.33;62.74;101824.31;6106958;23;96900;-86
2021/11/19 02:11:29;;;;;;;16.33;11.88;;;;;;;13.87;64.12;101817.00;6101977;23;96660;-86
2021/11/19 02:14:08;;;;;;;21.60;12.65;;;;;;;14.37;63.50;101817.13;6101904;23;96669;-86
2021/11/19 02:16:41;;;;;;;18.65;11.27;;;;;;;14.60;63.03;101813.69;6102886;23;96505;-86
2021/11/19 02:19:11;;;;;;;21.70;11.95;;;;;;;14.33;62.29;101810.16;6101483;23;96929;-85
2021/11/19 02:21:43;;;;;;;21.98;12.23;;;;;;;14.61;62.42;101815.44;6102134;23;98139;-86
2021/11/19 02:24:20;;;;;;;18.13;12.30;;;;;;;14.39;63.92;101799.34;6104209;23;96869;-86
2021/11/19 02:26:52;;;;;;;18.38;11.63;;;;;;;14.48;63.37;101804.34;6105684;23;96498;-85
2021/11/19 02:29:28;;;;;;;18.00;12.50;;;;;;;14.63;62.76;101810.94;6113157;23;99004;-85
2021/11/19 02:31:58;;;;;;;23.05;13.27;;;;;;;14.31;63.91;101809.31;6118679;23;96507;-84
2021/11/19 02:34:27;;;;;;;20.58;12.05;;;;;;;14.52;63.28;101810.41;6120525;23;96556;-84
2021/11/19 02:37:04;;;;;;;24.00;12.48;;;;;;;14.34;63.24;101803.91;6120370;23;96257;-85
2021/11/19 02:39:53;;;;;;;19.83;11.90;;;;;;;14.59;63.49;101807.50;6119444;22;98945;-83
2021/11/19 02:42:26;;;;;;;20.60;11.73;;;;;;;14.20;64.97;101803.50;6121013;22;99813;-84
2021/11/19 02:44:56;;;;;;;17.20;12.18;;;;;;;14.38;64.21;101807.34;6122457;22;97747;-86
2021/11/19 02:47:28;;;;;;;19.77;12.02;;;;;;;14.70;63.08;101812.44;6119915;22;96134;-86
2021/11/19 02:49:57;;;;;;;16.65;11.48;;;;;;;14.66;62.94;101809.00;6112428;23;100205;-85
2021/11/19 02:52:26;;;;;;;19.60;11.38;;;;;;;14.75;63.28;101818.47;6108385;23;100996;-83
2021/11/19 02:54:53;;;;;;;23.55;12.23;;;;;;;14.85;62.37;101825.19;6108520;23;96845;-85
2021/11/19 03:00:10;;;;;;;19.33;11.35;;;;;;;14.54;63.03;101819.22;6105751;23;98952;-86
2021/11/19 03:02:38;;;;;;;15.80;11.07;;;;;;;14.97;62.89;101824.72;6107510;23;98085;-85
2021/11/19 03:05:10;;;;;;;16.20;11.07;;;;;;;15.01;62.00;101826.38;6083898;23;96666;-85
2021/11/19 03:07:48;;;;;;;18.83;11.80;;;;;;;14.43;63.21;101826.72;6083335;23;96923;-85
2021/11/19 03:10:19;;;;;;;16.65;11.30;;;;;;;14.37;65.20;101822.44;6112058;23;97846;-85
2021/11/19 03:12:47;;;;;;;16.45;10.57;;;;;;;14.85;63.62;101819.00;6113366;23;100371;-85
2021/11/19 03:15:18;;;;;;;27.73;10.55;;;;;;;14.34;63.65;101803.91;6113895;23;96700;-85
2021/11/19 03:17:46;;;;;;;14.98;10.95;;;;;;;14.68;64.51;101822.28;6116676;23;96703;-85
2021/11/19 03:20:16;;;;;;;17.95;11.05;;;;;;;15.05;62.86;101816.47;6113488;23;100744;-84
2021/11/19 03:22:44;;;;;;;17.83;11.18;;;;;;;14.85;63.01;101811.00;6113353;23;100380;-85
2021/11/19 03:25:21;;;;;;;18.85;10.52;;;;;;;14.78;63.40;101818.34;6108793;23;96419;-86
2021/11/19 03:27:50;;;;;;;15.50;11.18;;;;;;;14.68;63.86;101819.59;6111032;23;96426;-86
2021/11/19 03:30:20;;;;;;;14.48;10.75;;;;;;;14.71;63.99;101816.81;6105277;23;102071;-86
2021/11/19 03:32:49;;;;;;;17.85;10.75;;;;;;;15.05;62.57;101803.16;6107971;23;98593;-86
2021/11/19 03:35:20;;;;;;;15.05;10.55;;;;;;;14.91;63.31;101818.75;6107937;23;96658;-85
2021/11/19 03:37:49;;;;;;;15.57;10.93;;;;;;;14.99;63.02;101817.56;6107956;23;96697;-86
2021/11/19 03:40:19;;;;;;;18.38;11.07;;;;;;;15.04;62.61;101809.41;6108812;23;96640;-87
2021/11/19 03:42:48;;;;;;;17.88;11.20;;;;;;;15.21;62.52;101817.66;6105130;23;100075;-86
2021/11/19 03:45:21;;;;;;;20.00;10.85;;;;;;;14.90;63.23;101828.53;6104983;23;96572;-86
2021/11/19 03:47:53;;;;;;;17.63;11.32;;;;;;;14.96;63.13;101816.81;6102841;23;96914;-87
2021/11/19 03:50:25;;;;;;;15.55;11.02;;;;;;;14.84;63.81;101825.22;6120471;22;97164;-86
2021/11/19 03:52:56;;;;;;;17.38;10.65;;;;;;;14.79;62.85;101825.41;6120724;22;98287;-86
2021/11/19 03:55:26;;;;;;;15.43;11.27;;;;;;;14.55;65.64;101829.81;6116029;23;96494;-87
2021/11/19 03:57:55;;;;;;;16.80;11.13;;;;;;;14.40;65.61;101827.66;6114574;23;96556;-86
2021/11/19 04:00:29;;;;;;;20.45;11.38;;;;;;;14.52;65.90;101829.91;6109480;23;100397;-87
2021/11/19 04:02:58;;;;;;;19.02;10.85;;;;;;;14.49;66.23;101832.69;6109322;23;100168;-87
2021/11/19 04:05:27;;;;;;;18.50;11.77;;;;;;;14.84;65.67;101836.75;6106248;23;96609;-86
2021/11/19 04:07:56;;;;;;;15.85;11.95;;;;;;;15.00;63.95;101839.72;6104715;23;96606;-87
2021/11/19 04:10:25;;;;;;;22.83;12.38;;;;;;;14.81;64.70;101852.84;6076252;23;98482;-86
2021/11/19 04:12:54;;;;;;;21.02;12.73;;;;;;;14.97;65.02;101839.81;6108720;23;100828;-86
2021/11/19 04:15:30;;;;;;;18.27;11.93;;;;;;;15.26;63.88;101838.75;6113160;23;96624;-86
2021/11/19 04:17:58;;;;;;;18.63;13.20;;;;;;;14.43;64.88;101837.34;6112525;23;96515;-85
2021/11/19 04:20:26;;;;;;;20.27;12.80;;;;;;;14.95;64.85;101842.56;6111448;23;98342;-84
2021/11/19 04:22:55;;;;;;;18.92;13.00;;;;;;;14.63;64.29;101834.88;6104390;23;97805;-85
2021/11/19 04:25:24;;;;;;;21.52;14.07;;;;;;;14.87;65.42;101838.44;6101194;23;96494;-85
2021/11/19 04:27:53;;;;;;;22.98;14.38;;;;;;;14.68;65.95;101832.91;6099652;23;97205;-87
2021/11/19 04:30:38;;;;;;;24.85;14.75;;;;;;;15.07;65.29;101833.25;6099687;23;100791;-86
2021/11/19 04:33:06;;;;;;;25.33;15.15;;;;;;;15.12;64.73;101826.84;6102863;23;101254;-86
2021/11/19 04:35:34;;;;;;;23.42;14.32;;;;;;;15.13;64.71;101833.03;6098773;23;96840;-86
2021/11/19 04:38:03;;;;;;;27.42;16.50;;;;;;;14.86;66.26;101836.69;6099059;23;96710;-87
2021/11/19 04:40:32;;;;;;;37.85;16.33;;;;;;;14.73;65.62;101828.28;6097585;23;100519;-86
2021/11/19 04:42:59;;;;;;;29.33;15.48;;;;;;;14.87;66.07;101826.00;6098556;23;98114;-87
2021/11/19 04:45:33;;;;;;;29.25;16.80;;;;;;;14.95;65.91;101823.06;6098346;23;96679;-87
2021/11/19 04:48:00;;;;;;;31.40;17.38;;;;;;;15.13;65.01;101830.38;6104022;23;96676;-86
2021/11/19 04:50:38;;;;;;;30.63;17.30;;;;;;;15.04;65.36;101834.22;6115084;23;99865;-86
2021/11/19 04:53:07;;;;;;;27.42;17.65;;;;;;;14.46;67.08;101832.78;6112900;23;99295;-84
2021/11/19 04:55:35;;;;;;;33.38;17.95;;;;;;;14.72;66.87;101851.34;6115441;23;96920;-85
2021/11/19 04:58:03;;;;;;;30.27;17.20;;;;;;;15.03;65.70;101848.47;6118788;23;96601;-85
2021/11/19 05:00:36;;;;;;;36.95;20.15;;;;;;;14.92;64.85;101852.44;6118770;23;98889;-85
2021/11/19 05:03:03;;;;;;;39.88;18.10;;;;;;;15.12;64.87;101841.94;6107695;23;98455;-84
2021/11/19 05:05:30;;;;;;;34.00;18.75;;;;;;;14.76;66.85;101846.81;6116599;23;96310;-84
2021/11/19 05:07:57;;;;;;;29.35;18.55;;;;;;;15.03;65.99;101843.13;6120503;23;96530;-84
2021/11/19 05:10:24;;;;;;;34.97;20.02;;;;;;;15.11;65.04;101843.72;6117820;23;99737;-84
2021/11/19 05:12:55;;;;;;;34.55;18.60;;;;;;;15.33;64.56;101854.47;6100701;23;98131;-85
2021/11/19 05:15:23;;;;;;;33.67;18.70;;;;;;;15.32;64.79;101844.72;6100464;23;96847;-84
2021/11/19 05:17:53;;;;;;;35.38;19.02;;;;;;;15.15;63.20;101847.16;6100041;23;96676;-84
2021/11/19 05:20:22;;;;;;;32.38;18.35;;;;;;;15.26;64.83;101852.06;6076087;23;99337;-84
2021/11/19 05:22:50;;;;;;;32.95;18.42;;;;;;;15.36;64.18;101854.31;6106359;23;97762;-84
2021/11/19 05:25:20;;;;;;;33.78;18.50;;;;;;;15.40;64.42;101849.78;6107949;23;96516;-84
2021/11/19 05:27:49;;;;;;;32.67;18.75;;;;;;;15.07;65.55;101844.78;6114064;23;96837;-84
2021/11/19 05:30:17;;;;;;;31.08;18.13;;;;;;;14.85;64.80;101842.94;6111002;23;96830;-84
2021/11/19 05:32:44;;;;;;;30.45;17.77;;;;;;;15.23;65.36;101842.41;6104332;23;99587;-84
2021/11/19 05:35:14;;;;;;;29.15;17.90;;;;;;;15.56;63.91;101834.13;6103777;23;97064;-85
2021/11/19 05:37:42;;;;;;;30.15;17.75;;;;;;;15.34;64.57;101842.88;6105550;23;96794;-85
2021/11/19 05:40:13;;;;;;;31.23;17.10;;;;;;;15.50;63.60;101844.03;6106585;23;97630;-85
2021/11/19 05:42:41;;;;;;;28.52;16.95;;;;;;;15.40;63.86;101845.31;6101231;23;99126;-84
2021/11/19 05:45:10;;;;;;;24.30;16.48;;;;;;;15.02;65.32;101849.41;6103237;23;96568;-85
2021/11/19 05:47:38;;;;;;;29.15;16.83;;;;;;;15.10;64.95;101846.44;6108253;23;96794;-85
2021/11/19 05:50:06;;;;;;;30.40;15.70;;;;;;;14.92;64.12;101841.78;6107325;23;99950;-84
2021/11/19 05:52:35;;;;;;;27.88;16.65;;;;;;;15.33;64.30;101842.94;6114603;23;100146;-85
2021/11/19 05:55:02;;;;;;;28.48;16.08;;;;;;;15.48;62.98;101843.22;6112691;23;96540;-85
2021/11/19 05:57:29;;;;;;;26.52;15.40;;;;;;;15.36;64.12;101846.34;6101072;23;96783;-86
2021/11/19 06:00:00;;;;;;;25.23;14.43;;;;;;;15.53;63.27;101851.06;6104642;23;100019;-86
2021/11/19 06:02:27;;;;;;;24.95;14.50;;;;;;;15.72;62.62;101846.75;6111021;23;100638;-87
2021/11/19 06:04:58;;;;;;;22.60;14.57;;;;;;;15.38;63.37;101843.63;6083163;23;96715;-86
2021/11/19 06:07:26;;;;;;;21.98;14.55;;;;;;;15.14;63.96;101848.09;6109880;23;96969;-86
2021/11/19 06:09:55;;;;;;;25.98;13.95;;;;;;;15.32;63.87;101854.50;6115862;23;99205;-85
2021/11/19 06:12:25;;;;;;;23.55;13.60;;;;;;;15.31;64.06;101847.44;6119347;23;99616;-87
2021/11/19 06:14:54;;;;;;;22.02;13.27;;;;;;;15.18;64.17;101855.03;6121227;22;96630;-88
2021/11/19 06:17:24;;;;;;;24.60;13.30;;;;;;;15.38;63.21;101862.25;6095111;23;96013;-88
2021/11/19 06:19:55;;;;;;;22.92;13.07;;;;;;;15.66;62.90;101862.13;6090629;23;97469;-85
2021/11/19 06:22:26;;;;;;;22.10;14.02;;;;;;;15.59;62.86;101863.28;6117828;23;96903;-86
2021/11/19 06:24:58;;;;;;;20.90;12.50;;;;;;;15.16;64.35;101859.56;6095166;23;96270;-85
2021/11/19 06:27:28;;;;;;;24.30;13.27;;;;;;;15.53;63.14;101867.94;6121133;22;96376;-85
2021/11/19 06:29:57;;;;;;;19.38;12.77;;;;;;;15.40;63.71;101868.41;6121013;23;99677;-85
2021/11/19 06:32:25;;;;;;;23.52;13.57;;;;;;;15.43;63.70;101871.81;6121048;23;99576;-85
2021/11/19 06:34:53;;;;;;;19.77;12.77;;;;;;;14.76;65.95;101873.44;6119679;23;96228;-86
2021/11/19 06:37:20;;;;;;;22.98;13.57;;;;;;;15.38;64.41;101879.13;6119756;23;96491;-84
2021/11/19 06:39:49;;;;;;;22.85;12.88;;;;;;;15.58;63.12;101883.72;6120040;22;100716;-84
2021/11/19 06:42:19;;;;;;;21.38;12.45;;;;;;;15.65;63.26;101871.03;6118269;23;96558;-85
2021/11/19 06:44:48;;;;;;;19.75;13.40;;;;;;;15.73;62.22;101879.59;6118646;23;96577;-85
2021/11/19 06:47:17;;;;;;;24.27;13.50;;;;;;;15.51;64.01;101877.72;6119679;23;96453;-84
2021/11/19 06:49:45;;;;;;;31.15;13.90;;;;;;;15.75;62.65;101881.25;6120227;22;98574;-82
2021/11/19 06:52:20;;;;;;;21.70;13.57;;;;;;;15.93;62.00;101875.22;6120312;22;99381;-84
2021/11/19 06:54:51;;;;;;;17.30;12.48;;;;;;;16.00;61.37;101870.53;6121931;22;95799;-85
2021/11/19 07:00:33;;;;;;;16.95;11.93;;;;;;;15.63;62.28;101873.75;6121526;22;98901;-84
2021/11/19 07:03:04;;;;;;;20.60;12.75;;;;;;;15.93;61.76;101879.69;6121721;22;101308;-86
2021/11/19 07:05:38;;;;;;;17.83;11.65;;;;;;;15.54;63.39;101875.00;6121961;22;95969;-85
2021/11/19 07:08:08;;;;;;;18.08;12.00;;;;;;;15.76;62.02;101871.47;6121030;22;96788;-85
2021/11/19 07:10:36;;;;;;;19.17;11.60;;;;;;;15.63;62.78;101875.53;6121625;22;100055;-83
2021/11/19 07:13:03;;;;;;;15.00;11.77;;;;;;;15.84;61.99;101878.25;6120992;22;98072;-85
2021/11/19 07:15:32;;;;;;;22.92;12.05;;;;;;;15.53;63.17;101875.91;6121822;22;95864;-84
2021/11/19 07:18:00;;;;;;;18.25;11.60;;;;;;;15.78;62.14;101889.16;6118795;22;96505;-84
2021/11/19 07:20:28;;;;;;;15.52;11.80;;;;;;;15.59;62.80;101889.91;6118293;22;99998;-84
2021/11/19 07:25:25;;;;;;;16.95;11.32;;;;;;;15.46;64.17;101893.03;6062359;23;96480;-85
2021/11/19 07:27:54;;;;;;;15.50;10.63;;;;;;;15.60;63.36;101887.22;6062577;23;96622;-84
2021/11/19 07:30:23;;;;;;;14.35;10.27;;;;;;;15.64;63.11;101886.16;6061573;23;98533;-84
2021/11/19 07:32:52;;;;;;;14.80;11.23;;;;;;;15.53;63.26;101893.69;6061655;23;97924;-85
2021/11/19 07:35:21;;;;;;;13.88;9.82;;;;;;;15.55;63.66;101889.19;6061386;23;96053;-85
2021/11/19 07:37:50;;;;;;;17.20;10.50;;;;;;;15.72;62.98;101893.84;6062662;23;96743;-84
2021/11/19 07:40:20;;;;;;;15.95;9.90;;;;;;;15.90;61.99;101896.66;6061729;23;100557;-85
2021/11/19 07:42:51;;;;;;;13.57;9.48;;;;;;;15.53;63.77;101896.34;6062745;23;97827;-85
2021/11/19 07:45:19;;;;;;;13.10;9.13;;;;;;;15.64;62.55;101891.47;6084645;22;99799;-84
2021/11/19 07:47:46;;;;;;;14.13;10.23;;;;;;;15.09;64.86;101892.66;6113954;23;96747;-83
2021/11/19 07:50:18;;;;;;;13.52;9.68;;;;;;;15.31;64.39;101898.91;6112985;23;100056;-84
2021/11/19 07:52:45;;;;;;;14.65;9.52;;;;;;;15.93;62.48;101896.56;6078566;23;97951;-85
2021/11/19 07:55:12;;;;;;;20.00;13.05;;;;;;;15.93;62.33;101901.88;6078944;23;96639;-85
2021/11/19 07:57:40;;;;;;;16.90;9.77;;;;;;;15.73;62.71;101907.13;6104810;23;96728;-85
2021/11/19 08:00:11;;;;;;;15.27;10.48;;;;;;;15.85;62.29;101903.97;6105092;23;96948;-84
2021/11/19 08:02:38;;;;;;;14.00;9.23;;;;;;;16.00;62.08;101904.31;6106195;23;100657;-85
2021/11/19 08:05:07;;;;;;;13.23;9.23;;;;;;;15.83;62.98;101912.94;6119919;22;95769;-85
2021/11/19 08:07:35;;;;;;;13.48;9.65;;;;;;;16.04;61.90;101914.78;6121060;23;95991;-86
2021/11/19 08:10:07;;;;;;;14.95;9.30;;;;;;;16.30;60.84;101908.41;6119686;23;96868;-79
2021/11/19 08:12:34;;;;;;;15.63;10.35;;;;;;;15.87;62.11;101919.91;6095191;23;100685;-80
2021/11/19 08:15:00;;;;;;;12.43;9.20;;;;;;;15.83;61.95;101915.63;6092481;23;97178;-81
2021/11/19 08:17:31;;;;;;;12.80;9.55;;;;;;;16.02;61.74;101916.63;6066875;23;97342;-81
2021/11/19 08:19:59;;;;;;;13.02;9.80;;;;;;;16.32;60.60;101903.88;6095087;23;97812;-79
2021/11/19 08:22:26;;;;;;;13.73;9.80;;;;;;;15.73;61.25;101922.25;6093653;23;99413;-81
2021/11/19 08:24:54;;;;;;;12.82;9.57;;;;;;;15.65;62.66;101921.66;6092955;23;97231;-81
2021/11/19 08:27:24;;;;;;;11.93;9.23;;;;;;;16.13;61.81;101927.75;6094143;23;96977;-80
2021/11/19 08:29:53;;;;;;;15.70;9.40;;;;;;;16.04;60.87;101917.44;6092098;23;97787;-81
2021/11/19 08:32:23;;;;;;;11.40;9.52;;;;;;;15.97;61.81;101936.41;6092353;23;99273;-81
2021/11/19 08:34:50;;;;;;;13.13;9.48;;;;;;;16.23;61.55;101922.91;6096714;23;96785;-80
2021/11/19 08:37:18;;;;;;;13.80;9.15;;;;;;;16.33;60.88;101934.97;6093444;23;97523;-82
2021/11/19 08:39:45;;;;;;;14.52;10.23;;;;;;;16.48;59.57;101925.44;6094017;23;101388;-82
2021/11/19 08:42:14;;;;;;;14.80;9.13;;;;;;;16.35;60.33;101925.94;6095751;23;98855;-81
2021/11/19 08:44:45;;;;;;;17.20;10.10;;;;;;;15.89;61.50;101926.91;6091434;23;96891;-80
2021/11/19 08:47:13;;;;;;;15.02;9.30;;;;;;;15.77;62.72;101929.19;6092251;23;96730;-80
2021/11/19 08:49:43;;;;;;;16.40;9.98;;;;;;;15.92;62.47;101933.94;6093080;23;97807;-80
2021/11/19 08:52:14;;;;;;;14.98;9.90;;;;;;;16.02;62.25;101924.63;6097975;23;97674;-81
2021/11/19 08:54:42;;;;;;;15.13;9.40;;;;;;;16.07;61.50;101922.66;6098315;23;96691;-80
2021/11/19 08:57:14;;;;;;;14.13;9.70;;;;;;;15.84;62.22;101934.22;6099686;23;97120;-81
2021/11/19 08:59:44;;;;;;;15.73;9.48;;;;;;;16.07;61.94;101925.34;6095847;23;97513;-80
2021/11/19 09:02:13;;;;;;;15.80;10.45;;;;;;;15.97;61.87;101926.63;6090772;23;99379;-80
2021/11/19 09:04:41;;;;;;;18.48;10.57;;;;;;;16.26;61.26;101929.00;6095152;23;96741;-81
2021/11/19 09:07:07;;;;;;;14.43;9.05;;;;;;;16.39;60.52;101920.50;6095812;23;97383;-82
2021/11/19 09:09:34;;;;;;;13.65;9.57;;;;;;;16.23;61.04;101921.13;6095941;23;99388;-81
2021/11/19 09:12:01;;;;;;;13.73;9.73;;;;;;;16.08;61.29;101935.03;6098075;23;98086;-84
2021/11/19 09:14:31;;;;;;;14.27;10.00;;;;;;;16.10;61.68;101938.53;6103306;23;96803;-82
2021/11/19 09:17:03;;;;;;;16.55;10.25;;;;;;;16.21;61.50;101936.28;6109024;23;96632;-82
2021/11/19 09:19:34;;;;;;;21.40;9.68;;;;;;;16.18;61.65;101931.09;6105327;23;98898;-83
2021/11/19 09:22:12;;;;;;;15.05;11.13;;;;;;;16.20;61.30;101947.06;6108696;23;99770;-84
2021/11/19 09:24:39;;;;;;;20.27;10.50;;;;;;;16.07;61.67;101933.34;6109923;23;96831;-82
2021/11/19 09:27:10;;;;;;;20.67;11.02;;;;;;;16.34;61.36;101937.53;6110503;23;96742;-83
2021/11/19 09:29:41;;;;;;;12.90;9.73;;;;;;;16.46;60.77;101935.31;6113302;23;98481;-84
2021/11/19 09:32:09;;;;;;;18.95;10.95;;;;;;;16.62;60.25;101929.31;6112991;23;99064;-83
2021/11/19 09:34:40;;;;;;;21.80;10.93;;;;;;;16.37;61.16;101941.03;6111956;23;97035;-83
2021/11/19 09:37:08;;;;;;;15.32;10.50;;;;;;;16.04;62.27;101933.44;6107400;23;96647;-82
2021/11/19 09:39:47;;;;;;;19.58;11.63;;;;;;;16.18;62.38;101935.56;6099833;23;97806;-81
2021/11/19 09:45:29;;;;;;;22.83;11.80;;;;;;;15.98;63.14;101943.47;6099755;23;96775;-83
2021/11/19 09:48:25;;;;;;;19.42;12.07;;;;;;;15.91;62.98;101941.06;6101154;23;97039;-83
2021/11/19 09:51:49;;;;;;;19.95;11.35;;;;;;;15.76;62.63;101944.28;6104511;23;99247;-82
2021/11/19 09:55:06;;;;;;;19.63;12.55;;;;;;;15.86;64.02;101939.50;6075276;23;98073;-83
2021/11/19 09:58:27;;;;;;;21.17;12.13;;;;;;;15.77;63.35;101939.84;6096122;23;97230;-84
2021/11/19 10:01:29;;;;;;;20.75;13.30;;;;;;;15.93;63.15;101936.53;6106523;23;96865;-84
2021/11/19 10:04:26;;;;;;;21.95;13.18;;;;;;;16.20;62.74;101934.59;6063065;23;99890;-83
2021/11/19 10:06:59;;;;;;;17.98;12.25;;;;;;;16.43;61.47;101936.31;6120885;22;98174;-84
2021/11/19 10:09:35;;;;;;;20.80;14.10;;;;;;;16.23;62.71;101936.25;6122535;22;96604;-84
2021/11/19 10:12:11;;;;;;;17.80;12.13;;;;;;;16.23;61.90;101923.78;6123051;22;95915;-83
2021/11/19 10:14:50;;;;;;;23.02;12.93;;;;;;;15.85;63.39;101932.44;6121384;23;97122;-84
2021/11/19 10:17:38;;;;;;;20.10;12.40;;;;;;;16.17;62.89;101926.69;6121743;23;96842;-83
2021/11/19 10:20:12;;;;;;;23.20;13.27;;;;;;;16.31;62.06;101927.00;6121443;22;95962;-82
2021/11/19 10:22:42;;;;;;;17.73;12.68;;;;;;;16.02;62.80;101940.63;6121850;23;96127;-83
2021/11/19 10:25:13;;;;;;;23.30;13.50;;;;;;;15.14;64.81;101935.94;6121558;22;100819;-83
2021/11/19 10:27:43;;;;;;;24.13;13.00;;;;;;;15.60;64.66;101931.63;6121835;22;99656;-82
2021/11/19 10:30:24;;;;;;;20.27;12.82;;;;;;;15.80;63.99;101934.41;6122104;22;95916;-83
2021/11/19 10:32:55;;;;;;;22.35;13.18;;;;;;;15.72;64.52;101936.50;6122960;22;96354;-84
2021/11/19 10:35:50;;;;;;;22.85;13.52;;;;;;;15.86;63.08;101928.84;6122385;22;96849;-84
2021/11/19 10:38:50;;;;;;;31.98;13.75;;;;;;;15.93;62.59;101930.34;6119827;22;98012;-83
2021/11/19 10:42:06;;;;;;;21.70;12.93;;;;;;;15.58;64.23;101922.81;6117845;23;96471;-84
2021/11/19 10:44:49;;;;;;;23.02;12.90;;;;;;;16.21;62.68;101922.97;6107389;23;96609;-83
2021/11/19 10:47:42;;;;;;;24.02;13.30;;;;;;;16.27;62.07;101921.88;6106578;23;101558;-84
2021/11/19 10:50:47;;;;;;;28.70;14.48;;;;;;;15.83;63.31;101923.63;6088636;23;98746;-83
2021/11/19 10:53:45;;;;;;;25.08;13.50;;;;;;;16.24;62.51;101909.53;6123345;22;96557;-84
2021/11/19 10:56:29;;;;;;;30.05;15.98;;;;;;;15.76;63.31;101924.78;6121165;22;96433;-85
2021/11/19 10:58:57;;;;;;;24.65;12.60;;;;;;;15.64;64.64;101925.25;6096940;22;99254;-85
2021/11/19 11:01:39;;;;;;;19.70;13.35;;;;;;;15.54;64.04;101914.09;6123539;22;96563;-83
2021/11/19 11:04:16;;;;;;;22.38;13.93;;;;;;;15.74;63.57;101930.19;6123508;22;95769;-84
2021/11/19 11:06:52;;;;;;;22.13;12.45;;;;;;;15.82;62.19;101924.53;6124265;22;96810;-82
2021/11/19 11:09:24;;;;;;;25.35;14.85;;;;;;;16.18;62.82;101930.22;6123181;22;100030;-84
2021/11/19 11:11:59;;;;;;;24.35;14.32;;;;;;;16.27;62.34;101930.75;6123264;22;97754;-83
2021/11/19 11:14:31;;;;;;;25.20;13.02;;;;;;;16.35;61.57;101920.59;6123590;22;96704;-83
2021/11/19 11:17:03;;;;;;;24.35;11.77;;;;;;;16.68;60.40;101930.84;6122612;22;96441;-81
2021/11/19 11:19:32;;;;;;;29.20;12.82;;;;;;;16.46;60.59;101919.31;6122266;22;96889;-82
2021/11/19 11:22:05;;;;;;;17.35;11.15;;;;;;;16.62;59.93;101925.78;6118919;23;98668;-82
2021/11/19 11:24:44;;;;;;;19.38;11.40;;;;;;;16.60;60.24;101930.31;6114635;23;96448;-82
2021/11/19 11:27:33;;;;;;;22.73;11.15;;;;;;;16.88;59.31;101920.19;6105802;23;96648;-83
2021/11/19 11:30:05;;;;;;;21.52;11.68;;;;;;;16.79;59.33;101925.94;6098118;23;99374;-85
2021/11/19 11:33:00;;;;;;;17.42;11.38;;;;;;;16.26;61.34;101913.00;6099590;23;100141;-83
2021/11/19 11:35:36;;;;;;;19.70;10.60;;;;;;;16.46;60.21;101924.66;6099351;23;97312;-82
2021/11/19 11:38:23;;;;;;;;;;;;;;;16.53;60.09;101920.81;6100281;23;96614;-82
2021/11/19 11:41:15;;;;;;;20.15;10.50;;;;;;;16.60;60.61;101911.66;6100852;23;101184;-82
2021/11/19 11:43:45;;;;;;;19.05;10.27;;;;;;;16.30;61.13;101919.94;6103461;23;100493;-83
2021/11/19 11:46:23;;;;;;;18.70;10.40;;;;;;;16.35;60.96;101919.75;6096007;23;97332;-82
2021/11/19 11:49:00;;;;;;;19.38;10.27;;;;;;;16.48;60.66;101922.78;6099847;23;96703;-83